createdAt,value
2018-05-11T00:00:01.765Z,7.67
2018-05-11T00:02:30.039Z,4.17
2018-05-11T00:04:58.390Z,3.60
2018-05-11T00:07:26.635Z,3.50
2018-05-11T00:09:54.900Z,3.47
2018-05-11T00:12:23.914Z,3.90
2018-05-11T00:14:52.170Z,3.00
2018-05-11T00:17:21.282Z,3.17
2018-05-11T00:19:49.593Z,3.10
2018-05-11T00:22:17.901Z,3.70
2018-05-11T00:24:46.958Z,7.30
2018-05-11T00:27:15.222Z,8.43
2018-05-11T00:29:43.504Z,6.83
2018-05-11T00:32:12.591Z,5.90
2018-05-11T00:34:40.862Z,5.37
2018-05-11T00:37:09.278Z,5.10
2018-05-11T00:39:37.578Z,7.60
2018-05-11T00:42:06.650Z,4.50
2018-05-11T00:44:34.915Z,3.43
2018-05-11T00:47:03.202Z,3.77
2018-05-11T00:49:31.585Z,3.90
2018-05-11T00:52:00.631Z,4.60
2018-05-11T00:54:28.885Z,4.77
2018-05-11T00:56:57.177Z,5.07
2018-05-11T00:59:25.564Z,3.90
2018-05-11T01:01:53.709Z,4.93
2018-05-11T01:04:21.987Z,3.30
2018-05-11T01:06:50.285Z,4.90
2018-05-11T01:09:18.543Z,3.90
2018-05-11T01:11:46.826Z,4.60
2018-05-11T01:14:15.091Z,3.63
2018-05-11T01:16:43.348Z,8.37
2018-05-11T01:19:11.690Z,7.77
2018-05-11T01:21:40.090Z,6.07
2018-05-11T01:24:09.146Z,5.23
2018-05-11T01:26:37.426Z,4.73
2018-05-11T01:29:05.856Z,7.37
2018-05-11T01:31:34.113Z,8.53
2018-05-11T01:34:03.138Z,8.43
2018-05-11T01:36:31.417Z,7.70
2018-05-11T01:38:59.673Z,9.37
2018-05-11T01:41:28.092Z,8.67
2018-05-11T01:43:56.413Z,5.07
2018-05-11T01:46:25.452Z,5.00
2018-05-11T01:48:53.733Z,5.93
2018-05-11T01:51:21.997Z,9.10
2018-05-11T01:53:50.265Z,8.90
2018-05-11T01:56:18.521Z,5.00
2018-05-11T01:58:46.770Z,6.47
2018-05-11T02:01:15.813Z,6.33
2018-05-11T02:03:44.889Z,4.70
2018-05-11T02:06:13.162Z,4.37
2018-05-11T02:08:41.437Z,4.67
2018-05-11T02:11:09.876Z,5.70
2018-05-11T02:13:38.126Z,4.67
2018-05-11T02:16:06.442Z,4.53
2018-05-11T02:18:35.535Z,5.70
2018-05-11T02:21:03.797Z,9.33
2018-05-11T02:23:32.824Z,7.00
2018-05-11T02:26:01.149Z,6.87
2018-05-11T02:28:29.387Z,5.50
2018-05-11T02:30:57.640Z,9.57
2018-05-11T02:33:26.298Z,8.63
2018-05-11T02:35:54.526Z,9.37
2018-05-11T02:38:22.789Z,9.90
2018-05-11T02:40:51.115Z,10.10
2018-05-11T02:43:19.450Z,10.33
2018-05-11T02:45:47.709Z,8.07
2018-05-11T02:48:15.986Z,6.23
2018-05-11T02:50:44.321Z,5.30
2018-05-11T02:53:12.542Z,5.83
2018-05-11T02:55:40.850Z,4.93
2018-05-11T02:58:09.151Z,6.03
2018-05-11T03:00:38.175Z,4.47
2018-05-11T03:03:06.438Z,4.50
2018-05-11T03:05:35.564Z,5.17
2018-05-11T03:08:03.919Z,4.43
2018-05-11T03:10:32.268Z,5.13
2018-05-11T03:13:01.267Z,5.33
2018-05-11T03:15:29.649Z,9.30
2018-05-11T03:17:58.662Z,6.43
2018-05-11T03:20:26.929Z,6.47
2018-05-11T03:22:55.181Z,4.20
2018-05-11T03:25:24.239Z,4.57
2018-05-11T03:27:52.513Z,3.97
2018-05-11T03:30:20.782Z,4.70
2018-05-11T03:32:49.198Z,5.33
2018-05-11T03:35:18.213Z,4.07
2018-05-11T03:37:47.326Z,4.67
2018-05-11T03:40:15.621Z,3.90
2018-05-11T03:42:45.473Z,3.93
2018-05-11T03:45:14.486Z,3.67
2018-05-11T03:47:43.541Z,3.80
2018-05-11T03:50:11.842Z,5.00
2018-05-11T03:52:40.886Z,7.77
2018-05-11T03:55:09.302Z,6.40
2018-05-11T03:57:38.329Z,5.80
2018-05-11T04:00:06.641Z,5.90
2018-05-11T04:02:46.651Z,5.20
2018-05-11T04:05:27.545Z,4.40
2018-05-11T04:08:07.647Z,5.60
2018-05-11T04:10:37.542Z,5.90
2018-05-11T04:13:05.958Z,5.83
2018-05-11T04:15:34.127Z,5.50
2018-05-11T04:18:03.501Z,7.00
2018-05-11T04:20:31.746Z,6.27
2018-05-11T04:23:00.017Z,5.03
2018-05-11T04:25:28.287Z,5.87
2018-05-11T04:27:56.578Z,7.13
2018-05-11T04:30:24.849Z,7.33
2018-05-11T04:32:53.113Z,4.97
2018-05-11T04:35:21.393Z,6.67
2018-05-11T04:37:49.707Z,5.43
2018-05-11T04:40:18.742Z,6.53
2018-05-11T04:42:46.991Z,7.90
2018-05-11T04:45:16.108Z,7.40
2018-05-11T04:47:44.297Z,6.80
2018-05-11T04:50:12.617Z,6.67
2018-05-11T04:52:40.902Z,8.50
2018-05-11T04:55:10.089Z,7.73
2018-05-11T04:57:38.386Z,7.17
2018-05-11T05:00:06.658Z,6.53
2018-05-11T05:02:35.011Z,6.50
2018-05-11T05:05:03.285Z,7.43
2018-05-11T05:07:31.525Z,7.30
2018-05-11T05:09:59.791Z,8.53
2018-05-11T05:12:28.181Z,6.13
2018-05-11T05:14:56.590Z,7.80
2018-05-11T05:17:24.862Z,8.53
2018-05-11T05:19:53.139Z,8.67
2018-05-11T05:22:21.399Z,7.73
2018-05-11T05:24:49.667Z,7.43
2018-05-11T05:27:18.743Z,8.07
2018-05-11T05:29:47.018Z,8.30
2018-05-11T05:32:15.278Z,8.53
2018-05-11T05:34:43.552Z,8.73
2018-05-11T05:37:11.837Z,9.53
2018-05-11T05:39:40.114Z,8.37
2018-05-11T05:42:08.365Z,9.40
2018-05-11T05:44:36.649Z,10.37
2018-05-11T05:47:04.908Z,9.77
2018-05-11T05:49:33.206Z,10.07
2018-05-11T05:52:01.674Z,9.73
2018-05-11T05:54:29.833Z,9.87
2018-05-11T05:56:58.879Z,10.20
2018-05-11T06:02:01.602Z,11.20
2018-05-11T06:04:29.983Z,9.87
2018-05-11T06:06:58.235Z,11.30
2018-05-11T06:09:26.522Z,11.43
2018-05-11T06:11:54.782Z,10.90
2018-05-11T06:14:23.053Z,12.17
2018-05-11T06:16:51.355Z,10.67
2018-05-11T06:19:20.398Z,11.50
2018-05-11T06:21:48.684Z,11.07
2018-05-11T06:24:17.045Z,10.40
2018-05-11T06:26:45.499Z,11.30
2018-05-11T06:29:14.524Z,9.73
2018-05-11T06:31:42.770Z,10.53
2018-05-11T06:34:11.940Z,10.40
2018-05-11T06:36:40.194Z,10.00
2018-05-11T06:39:08.620Z,10.43
2018-05-11T06:41:36.933Z,11.07
2018-05-11T06:44:05.202Z,9.93
2018-05-11T06:46:33.453Z,11.60
2018-05-11T06:49:01.759Z,12.50
2018-05-11T06:51:30.074Z,12.57
2018-05-11T06:53:58.309Z,9.80
2018-05-11T06:56:26.589Z,11.27
2018-05-11T06:58:54.910Z,13.33
2018-05-11T07:01:23.945Z,14.73
2018-05-11T07:03:52.263Z,12.40
2018-05-11T07:06:20.501Z,11.80
2018-05-11T07:08:48.813Z,14.20
2018-05-11T07:11:17.070Z,14.70
2018-05-11T07:13:45.412Z,15.10
2018-05-11T07:16:13.682Z,12.73
2018-05-11T07:18:41.970Z,13.50
2018-05-11T07:21:10.283Z,16.03
2018-05-11T07:23:38.544Z,14.43
2018-05-11T07:26:06.927Z,11.97
2018-05-11T07:28:35.232Z,13.03
2018-05-11T07:31:03.530Z,13.27
2018-05-11T07:33:31.803Z,11.50
2018-05-11T07:36:00.103Z,11.40
2018-05-11T07:38:28.409Z,11.50
2018-05-11T07:40:56.746Z,13.13
2018-05-11T07:43:25.152Z,13.50
2018-05-11T07:45:53.268Z,13.67
2018-05-11T07:48:21.545Z,13.00
2018-05-11T07:50:49.836Z,12.10
2018-05-11T07:53:18.183Z,12.50
2018-05-11T07:55:47.615Z,12.90
2018-05-11T07:58:15.926Z,12.37
2018-05-11T08:00:45.720Z,11.50
2018-05-11T08:03:14.004Z,13.27
2018-05-11T08:05:42.311Z,12.80
2018-05-11T08:08:10.584Z,10.10
2018-05-11T08:10:39.619Z,11.97
2018-05-11T08:13:08.066Z,12.10
2018-05-11T08:15:37.875Z,11.70
2018-05-11T08:18:06.250Z,12.20
2018-05-11T08:20:35.277Z,17.07
2018-05-11T08:23:03.682Z,15.17
2018-05-11T08:25:31.958Z,15.80
2018-05-11T08:28:00.336Z,11.27
2018-05-11T08:30:28.606Z,19.20
2018-05-11T08:32:56.883Z,17.93
2018-05-11T08:35:25.162Z,16.03
2018-05-11T08:37:53.485Z,14.57
2018-05-11T08:40:22.546Z,12.60
2018-05-11T08:42:50.822Z,16.73
2018-05-11T08:45:19.220Z,19.93
2018-05-11T08:47:47.498Z,18.40
2018-05-11T08:50:16.572Z,14.03
2018-05-11T08:52:44.843Z,15.80
2018-05-11T08:55:13.202Z,17.27
2018-05-11T08:57:41.489Z,16.47
2018-05-11T09:00:09.789Z,14.37
2018-05-11T09:02:38.049Z,16.60
2018-05-11T09:05:06.878Z,12.43
2018-05-11T09:07:35.159Z,15.37
2018-05-11T09:10:04.019Z,13.43
2018-05-11T09:12:32.492Z,16.63
2018-05-11T09:15:01.538Z,16.33
2018-05-11T09:17:29.819Z,14.33
2018-05-11T09:19:58.117Z,9.70
2018-05-11T09:22:26.396Z,10.13
2018-05-11T09:24:54.680Z,13.47
2018-05-11T09:27:22.970Z,16.50
2018-05-11T09:29:52.012Z,14.77
2018-05-11T09:32:20.290Z,14.77
2018-05-11T09:34:48.571Z,9.90
2018-05-11T09:37:16.867Z,15.53
2018-05-11T09:39:46.762Z,14.83
2018-05-11T09:42:14.938Z,15.67
2018-05-11T09:44:43.190Z,11.13
2018-05-11T09:47:11.494Z,15.80
2018-05-11T09:49:39.778Z,13.77
2018-05-11T09:52:08.178Z,13.23
2018-05-11T09:54:36.750Z,14.37
2018-05-11T09:57:05.135Z,13.80
2018-05-11T09:59:34.183Z,16.07
2018-05-11T10:02:02.618Z,14.53
2018-05-11T10:04:30.860Z,14.37
2018-05-11T10:06:59.131Z,15.50
2018-05-11T10:09:27.606Z,15.27
2018-05-11T10:11:55.963Z,15.67
2018-05-11T10:14:24.403Z,16.13
2018-05-11T10:16:52.714Z,13.67
2018-05-11T10:19:21.027Z,16.50
2018-05-11T10:21:50.157Z,10.53
2018-05-11T10:24:19.210Z,15.80
2018-05-11T10:26:47.486Z,12.63
2018-05-11T10:29:16.559Z,14.40
2018-05-11T10:31:44.846Z,17.30
2018-05-11T10:34:13.172Z,16.93
2018-05-11T10:36:41.459Z,14.43
2018-05-11T10:39:09.748Z,11.77
2018-05-11T10:41:38.044Z,14.33
2018-05-11T10:44:06.362Z,14.13
2018-05-11T10:46:35.506Z,15.30
2018-05-11T10:49:03.811Z,15.57
2018-05-11T10:51:32.072Z,10.63
2018-05-11T10:54:00.361Z,15.97
2018-05-11T10:56:28.691Z,15.47
2018-05-11T10:58:56.970Z,13.27
2018-05-11T11:01:25.380Z,11.80
2018-05-11T11:03:53.717Z,12.03
2018-05-11T11:06:22.023Z,12.67
2018-05-11T11:08:50.315Z,13.87
2018-05-11T11:11:18.686Z,10.30
2018-05-11T11:13:46.989Z,11.90
2018-05-11T11:16:15.302Z,11.40
2018-05-11T11:18:43.582Z,11.47
2018-05-11T11:21:12.027Z,11.23
2018-05-11T11:23:40.311Z,11.83
2018-05-11T11:26:08.637Z,10.67
2018-05-11T11:28:36.965Z,11.07
2018-05-11T11:31:05.371Z,11.10
2018-05-11T11:33:33.643Z,9.50
2018-05-11T11:36:01.925Z,9.50
2018-05-11T11:38:30.301Z,11.13
2018-05-11T11:40:58.617Z,11.43
2018-05-11T11:43:26.916Z,11.60
2018-05-11T11:45:55.188Z,11.60
2018-05-11T11:48:23.457Z,10.40
2018-05-11T11:50:52.507Z,9.80
2018-05-11T11:53:20.779Z,12.20
2018-05-11T11:55:49.050Z,9.53
2018-05-11T11:58:17.402Z,10.00
2018-05-11T12:00:45.677Z,10.23
2018-05-11T12:03:14.082Z,10.43
2018-05-11T12:05:42.425Z,10.17
2018-05-11T12:08:11.109Z,11.23
2018-05-11T12:10:39.373Z,9.23
2018-05-11T12:13:07.726Z,11.53
2018-05-11T12:15:37.013Z,10.97
2018-05-11T12:18:05.326Z,11.27
2018-05-11T12:20:33.589Z,12.20
2018-05-11T12:23:02.658Z,11.47
2018-05-11T12:25:30.962Z,9.87
2018-05-11T12:28:00.150Z,12.57
2018-05-11T12:30:28.445Z,9.80
2018-05-11T12:32:57.522Z,12.73
2018-05-11T12:35:26.599Z,10.50
2018-05-11T12:37:54.909Z,10.50
2018-05-11T12:40:23.238Z,11.40
2018-05-11T12:42:51.994Z,9.83
2018-05-11T12:45:20.295Z,10.17
2018-05-11T12:47:49.346Z,9.60
2018-05-11T12:50:17.653Z,10.20
2018-05-11T12:52:45.984Z,11.70
2018-05-11T12:55:15.423Z,9.93
2018-05-11T12:57:43.708Z,10.00
2018-05-11T13:00:11.998Z,9.60
2018-05-11T13:02:40.290Z,10.43
2018-05-11T13:05:09.343Z,9.63
2018-05-11T13:07:37.641Z,9.53
2018-05-11T13:10:05.936Z,8.80
2018-05-11T13:12:34.255Z,9.17
2018-05-11T13:15:02.613Z,7.20
2018-05-11T13:17:31.739Z,7.03
2018-05-11T13:20:00.018Z,7.23
2018-05-11T13:22:28.495Z,6.73
2018-05-11T13:24:56.870Z,8.37
2018-05-11T13:27:25.143Z,5.40
2018-05-11T13:29:53.428Z,5.80
2018-05-11T13:32:21.690Z,5.90
2018-05-11T13:34:49.956Z,5.30
2018-05-11T13:37:18.233Z,5.70
2018-05-11T13:39:46.518Z,4.47
2018-05-11T13:42:14.937Z,3.93
2018-05-11T13:44:43.105Z,3.57
2018-05-11T13:47:11.375Z,3.83
2018-05-11T13:49:39.738Z,3.27
2018-05-11T13:52:07.975Z,3.20
2018-05-11T13:54:36.238Z,3.60
2018-05-11T13:57:05.268Z,3.90
2018-05-11T13:59:33.538Z,3.50
2018-05-11T14:02:01.849Z,3.63
2018-05-11T14:04:31.760Z,3.50
2018-05-11T14:06:59.997Z,3.83
2018-05-11T14:09:28.269Z,4.10
2018-05-11T14:11:56.529Z,3.80
2018-05-11T14:14:24.819Z,4.20
2018-05-11T14:16:53.335Z,4.10
2018-05-11T14:19:21.591Z,4.33
2018-05-11T14:21:49.861Z,3.70
2018-05-11T14:24:18.129Z,3.73
2018-05-11T14:26:46.374Z,3.83
2018-05-11T14:29:15.472Z,3.47
2018-05-11T14:31:43.769Z,3.37
2018-05-11T14:34:12.114Z,3.60
2018-05-11T14:36:41.157Z,3.77
2018-05-11T14:39:09.463Z,4.03
2018-05-11T14:41:37.722Z,3.53
2018-05-11T14:44:05.984Z,3.33
2018-05-11T14:46:34.255Z,3.27
2018-05-11T14:49:02.505Z,3.80
2018-05-11T14:51:30.793Z,3.83
2018-05-11T14:53:59.123Z,3.70
2018-05-11T14:56:27.354Z,3.50
2018-05-11T14:58:55.630Z,3.30
2018-05-11T15:01:23.983Z,3.70
2018-05-11T15:03:52.269Z,3.23
2018-05-11T15:06:20.661Z,3.40
2018-05-11T15:08:48.949Z,3.40
2018-05-11T15:11:17.307Z,2.97
2018-05-11T15:13:45.554Z,3.37
2018-05-11T15:16:14.634Z,2.90
2018-05-11T15:18:43.805Z,3.60
2018-05-11T15:21:12.077Z,3.07
2018-05-11T15:23:40.343Z,3.33
2018-05-11T15:26:08.663Z,3.57
2018-05-11T15:28:37.737Z,3.73
2018-05-11T15:31:06.851Z,3.57
2018-05-11T15:33:35.051Z,4.20
2018-05-11T15:36:03.309Z,4.40
2018-05-11T15:38:31.590Z,4.17
2018-05-11T15:41:00.026Z,3.60
2018-05-11T15:43:28.317Z,3.70
2018-05-11T15:45:57.332Z,3.53
2018-05-11T15:48:25.651Z,3.53
2018-05-11T15:50:53.905Z,3.87
2018-05-11T15:53:22.178Z,3.10
2018-05-11T15:55:50.433Z,3.83
2018-05-11T15:58:18.706Z,3.97
2018-05-11T16:00:46.955Z,3.30
2018-05-11T16:03:16.015Z,3.20
2018-05-11T16:05:44.287Z,2.63
2018-05-11T16:08:12.538Z,3.20
2018-05-11T16:10:40.852Z,3.27
2018-05-11T16:13:09.117Z,3.80
2018-05-11T16:15:37.848Z,3.57
2018-05-11T16:18:06.934Z,3.37
2018-05-11T16:20:35.360Z,3.00
2018-05-11T16:23:03.651Z,3.00
2018-05-11T16:25:31.897Z,3.43
2018-05-11T16:28:00.157Z,3.03
2018-05-11T16:30:28.509Z,3.10
2018-05-11T16:32:56.736Z,2.93
2018-05-11T16:35:25.041Z,2.93
2018-05-11T16:37:53.317Z,2.73
2018-05-11T16:40:21.581Z,2.63
2018-05-11T16:42:49.830Z,4.93
2018-05-11T16:45:18.160Z,3.10
2018-05-11T16:47:47.191Z,2.67
2018-05-11T16:50:15.503Z,2.90
2018-05-11T16:52:45.289Z,4.10
2018-05-11T16:55:13.571Z,5.70
2018-05-11T16:57:41.866Z,4.40
2018-05-11T17:00:10.283Z,3.40
2018-05-11T17:02:38.567Z,2.80
2018-05-11T17:05:06.898Z,3.83
2018-05-11T17:07:35.261Z,3.00
2018-05-11T17:10:03.546Z,3.33
2018-05-11T17:12:31.835Z,3.00
2018-05-11T17:15:00.092Z,3.43
2018-05-11T17:17:28.361Z,3.50
2018-05-11T17:19:56.631Z,2.27
2018-05-11T17:22:24.906Z,3.10
2018-05-11T17:24:53.171Z,2.50
2018-05-11T17:27:21.430Z,2.60
2018-05-11T17:29:49.703Z,2.67
2018-05-11T17:32:17.961Z,2.70
2018-05-11T17:34:47.034Z,2.03
2018-05-11T17:37:15.298Z,3.10
2018-05-11T17:39:44.342Z,2.50
2018-05-11T17:42:12.635Z,2.93
2018-05-11T17:44:41.837Z,3.90
2018-05-11T17:47:11.743Z,3.33
2018-05-11T17:49:40.035Z,3.53
2018-05-11T17:52:08.300Z,3.50
2018-05-11T17:54:36.770Z,3.37
2018-05-11T17:57:05.055Z,3.33
2018-05-11T17:59:33.328Z,3.17
2018-05-11T18:02:01.591Z,3.73
2018-05-11T18:04:30.162Z,3.80
2018-05-11T18:06:58.427Z,3.50
2018-05-11T18:09:27.456Z,3.20
2018-05-11T18:11:55.740Z,3.40
2018-05-11T18:14:24.016Z,3.47
2018-05-11T18:16:52.304Z,3.50
2018-05-11T18:19:21.341Z,3.30
2018-05-11T18:21:49.648Z,2.90
2018-05-11T18:24:17.897Z,3.00
2018-05-11T18:26:46.191Z,2.73
2018-05-11T18:29:14.445Z,3.60
2018-05-11T18:31:42.715Z,2.93
2018-05-11T18:34:10.980Z,2.83
2018-05-11T18:36:39.446Z,2.90
2018-05-11T18:39:08.518Z,3.20
2018-05-11T18:41:36.784Z,3.17
2018-05-11T18:44:05.028Z,3.73
2018-05-11T18:46:33.327Z,3.70
2018-05-11T18:49:01.606Z,3.43
2018-05-11T18:51:29.949Z,3.23
2018-05-11T18:53:59.400Z,3.37
2018-05-11T18:56:27.386Z,3.60
2018-05-11T18:58:56.394Z,3.93
2018-05-11T19:01:24.669Z,3.70
2018-05-11T19:03:52.942Z,3.57
2018-05-11T19:06:21.243Z,3.90
2018-05-11T19:08:49.617Z,4.20
2018-05-11T19:11:17.987Z,3.77
2018-05-11T19:13:46.397Z,3.70
2018-05-11T19:16:14.653Z,3.80
2018-05-11T19:18:42.934Z,3.63
2018-05-11T19:21:11.222Z,3.50
2018-05-11T19:23:39.685Z,3.60
2018-05-11T19:26:07.970Z,3.60
2018-05-11T19:28:36.222Z,3.93
2018-05-11T19:31:04.503Z,3.80
2018-05-11T19:33:32.806Z,4.07
2018-05-11T19:36:01.085Z,4.40
2018-05-11T19:38:29.431Z,4.23
2018-05-11T19:40:57.926Z,4.20
2018-05-11T19:43:27.198Z,4.20
2018-05-11T19:45:55.437Z,4.37
2018-05-11T19:48:24.507Z,4.80
2018-05-11T19:50:52.898Z,4.70
2018-05-11T19:53:21.154Z,4.37
2018-05-11T19:55:49.433Z,5.00
2018-05-11T19:58:17.726Z,4.63
2018-05-11T20:00:46.014Z,5.77
2018-05-11T20:03:15.063Z,5.20
2018-05-11T20:05:43.364Z,6.00
2018-05-11T20:08:11.638Z,5.43
2018-05-11T20:10:39.972Z,5.80
2018-05-11T20:13:08.301Z,5.40
2018-05-11T20:15:36.547Z,5.77
2018-05-11T20:18:04.853Z,5.77
2018-05-11T20:20:33.890Z,6.17
2018-05-11T20:23:02.288Z,5.70
2018-05-11T20:25:30.551Z,6.47
2018-05-11T20:27:58.872Z,6.40
2018-05-11T20:30:27.898Z,6.67
2018-05-11T20:32:56.265Z,6.47
2018-05-11T20:35:24.558Z,7.43
2018-05-11T20:37:52.840Z,6.43
2018-05-11T20:40:21.122Z,5.20
2018-05-11T20:42:49.400Z,5.53
2018-05-11T20:45:17.655Z,5.17
2018-05-11T20:47:46.096Z,5.50
2018-05-11T20:50:14.354Z,5.40
2018-05-11T20:52:42.635Z,5.40
2018-05-11T20:55:10.884Z,5.37
2018-05-11T20:57:39.191Z,6.33
2018-05-11T21:00:08.929Z,5.37
2018-05-11T21:02:37.206Z,5.47
2018-05-11T21:05:06.237Z,5.33
2018-05-11T21:07:34.509Z,5.87
2018-05-11T21:10:03.393Z,5.67
2018-05-11T21:12:31.799Z,6.00
2018-05-11T21:15:01.846Z,5.40
2018-05-11T21:17:33.073Z,5.77
2018-05-11T21:20:02.865Z,6.77
2018-05-11T21:22:31.358Z,6.63
2018-05-11T21:24:59.809Z,6.30
2018-05-11T21:27:28.060Z,7.10
2018-05-11T21:29:57.522Z,6.70
2018-05-11T21:32:25.790Z,6.47
2018-05-11T21:34:54.086Z,6.20
2018-05-11T21:37:22.353Z,6.00
2018-05-11T21:39:50.727Z,6.47
2018-05-11T21:42:19.815Z,5.90
2018-05-11T21:44:48.105Z,5.90
2018-05-11T21:47:17.147Z,6.03
2018-05-11T21:49:45.443Z,5.90
2018-05-11T21:52:13.717Z,6.83
2018-05-11T21:54:42.022Z,6.40
2018-05-11T21:57:10.346Z,5.70
2018-05-11T21:59:38.626Z,7.13
2018-05-11T22:02:06.881Z,5.90
2018-05-11T22:04:35.237Z,6.00
2018-05-11T22:07:03.490Z,6.00
2018-05-11T22:09:31.856Z,6.20
2018-05-11T22:12:00.145Z,5.67
2018-05-11T22:14:28.676Z,6.37
2018-05-11T22:16:57.606Z,6.30
2018-05-11T22:19:25.867Z,5.70
2018-05-11T22:21:54.116Z,6.63
2018-05-11T22:24:22.369Z,5.83
2018-05-11T22:26:50.662Z,5.30
2018-05-11T22:29:19.790Z,6.10
2018-05-11T22:31:48.048Z,5.90
2018-05-11T22:34:16.294Z,5.00
2018-05-11T22:36:44.555Z,5.50
2018-05-11T22:39:13.669Z,5.00
2018-05-11T22:41:41.953Z,6.17
2018-05-11T22:44:10.192Z,5.23
2018-05-11T22:46:38.435Z,5.50
2018-05-11T22:49:06.686Z,5.33
2018-05-11T22:51:34.934Z,4.57
2018-05-11T22:54:03.957Z,4.27
2018-05-11T22:56:32.215Z,4.13
2018-05-11T22:59:00.506Z,4.93
2018-05-11T23:01:28.744Z,4.80
2018-05-11T23:03:57.062Z,8.60
2018-05-11T23:06:25.358Z,6.83
2018-05-11T23:08:54.401Z,6.20
2018-05-11T23:11:22.682Z,7.03
2018-05-11T23:13:50.963Z,5.87
2018-05-11T23:16:19.355Z,5.83
2018-05-11T23:18:49.548Z,6.17
2018-05-11T23:21:18.188Z,6.10
2018-05-11T23:23:46.448Z,4.67
2018-05-11T23:26:15.197Z,5.40
2018-05-11T23:28:43.503Z,5.93
2018-05-11T23:31:11.778Z,7.93
2018-05-11T23:33:40.285Z,8.03
2018-05-11T23:36:08.699Z,9.00
2018-05-11T23:38:36.977Z,6.83
2018-05-11T23:41:05.248Z,5.73
2018-05-11T23:43:33.558Z,5.60
2018-05-11T23:46:01.851Z,5.80
2018-05-11T23:48:30.117Z,5.80
2018-05-11T23:50:58.429Z,5.77
2018-05-11T23:53:27.443Z,5.00
2018-05-11T23:55:55.718Z,5.30
2018-05-11T23:58:23.994Z,6.63
